Osceola, Indiana
Current Conditions -  °F | °C
As of 8:50 PM on Thursday 30 Oct 2014 (Local Time) from KEKM Reporting Station
Overcast Overcast  
Wind Chill: 46°   Ceiling: 11000
Heat Index: 46°   Visibility: 10mi
Dew Point: 34°   Wind: 0mph
Humidity: 62%   Direction: NA
Pressure: 30.06"   Gusts: NA
Location:  41.67°N, 86.08°W
Report Text: KEKM 310050Z 00000KT 10SM OVC110 08/01 A3006
Loading
Personal Weather Stations






























Interactive Weather Map New forecast layout! Learn more

10-Day Weather Forecast

Advertisements
Track Severe Weather on mobile